createdAt,value
2022-08-09T00:00:28.253Z,78.19
2022-08-09T00:06:18.878Z,78.40
2022-08-09T00:11:24.504Z,78.46
2022-08-09T00:16:36.754Z,78.42
2022-08-09T00:21:55.441Z,78.61
2022-08-09T00:27:02.591Z,78.64
2022-08-09T00:32:07.198Z,78.80
2022-08-09T00:37:11.311Z,79.14
2022-08-09T00:44:16.261Z,78.98
2022-08-09T00:47:39.932Z,79.50
2022-08-09T00:52:45.128Z,79.80
2022-08-09T00:57:49.894Z,79.74
2022-08-09T01:03:46.317Z,79.83
2022-08-09T01:09:11.009Z,80.22
2022-08-09T01:14:29.233Z,80.55
2022-08-09T01:20:10.387Z,80.97
2022-08-09T01:25:50.969Z,81.68
2022-08-09T01:30:59.951Z,82.01
2022-08-09T01:36:20.959Z,82.07
2022-08-09T01:41:30.850Z,82.11
2022-08-09T01:46:47.872Z,82.36
2022-08-09T01:52:07.406Z,82.42
2022-08-09T01:57:18.625Z,82.39
2022-08-09T02:02:32.691Z,82.35
2022-08-09T02:08:40.414Z,82.33
2022-08-09T02:13:14.994Z,82.14
2022-08-09T02:18:24.195Z,82.32
2022-08-09T02:23:43.163Z,82.56
2022-08-09T02:29:06.955Z,82.47
2022-08-09T02:34:41.354Z,82.48
2022-08-09T02:40:10.666Z,83.04
2022-08-09T02:45:28.716Z,83.59
2022-08-09T02:50:45.788Z,83.58
2022-08-09T02:55:58.622Z,83.54
2022-08-09T03:01:06.390Z,83.53
2022-08-09T03:06:15.357Z,83.39
2022-08-09T03:12:05.238Z,83.14
2022-08-09T03:16:48.733Z,83.04
2022-08-09T03:21:54.261Z,83.00
2022-08-09T03:26:59.768Z,83.24
2022-08-09T03:32:08.571Z,83.29
2022-08-09T03:37:56.662Z,83.21
2022-08-09T03:42:37.681Z,83.01
2022-08-09T03:47:46.529Z,82.86
2022-08-09T03:52:51.437Z,82.87
2022-08-09T03:58:06.369Z,82.74
2022-08-09T04:03:35.303Z,82.68
2022-08-09T04:08:53.551Z,82.58
2022-08-09T04:14:44.070Z,82.43
2022-08-09T04:19:30.021Z,82.32
2022-08-09T04:24:46.316Z,82.43
2022-08-09T04:29:50.774Z,82.34
2022-08-09T04:34:58.670Z,82.35
2022-08-09T04:40:08.361Z,82.00
2022-08-09T04:45:15.033Z,81.71
2022-08-09T04:50:19.722Z,81.43
2022-08-09T04:55:24.022Z,81.24
2022-08-09T05:00:31.934Z,80.96
2022-08-09T05:05:51.789Z,80.65
2022-08-09T05:10:56.956Z,80.11
2022-08-09T05:16:05.465Z,79.86
2022-08-09T05:21:09.690Z,79.62
2022-08-09T05:26:22.300Z,79.54
2022-08-09T05:31:42.760Z,79.40
2022-08-09T05:36:51.368Z,79.29
2022-08-09T05:42:01.574Z,79.13
2022-08-09T05:47:08.889Z,79.11
2022-08-09T05:52:13.366Z,79.25
2022-08-09T05:57:19.175Z,79.28
2022-08-09T06:02:23.438Z,79.22
2022-08-09T06:07:28.875Z,79.11
2022-08-09T06:12:33.613Z,78.83
2022-08-09T06:17:39.837Z,78.64
2022-08-09T06:22:45.724Z,78.54
2022-08-09T06:27:51.853Z,78.49
2022-08-09T06:33:13.693Z,78.53
2022-08-09T06:38:20.584Z,78.39
2022-08-09T06:43:36.988Z,78.21
2022-08-09T06:48:45.014Z,78.01
2022-08-09T06:53:50.023Z,77.93
2022-08-09T07:00:50.913Z,77.68
2022-08-09T07:04:21.069Z,77.51
2022-08-09T07:09:53.482Z,77.31
2022-08-09T07:14:54.618Z,77.10
2022-08-09T07:19:58.764Z,77.06
2022-08-09T07:25:09.502Z,77.01
2022-08-09T07:30:15.739Z,76.89
2022-08-09T07:35:23.138Z,76.67
2022-08-09T07:40:46.284Z,76.43
2022-08-09T07:45:54.854Z,76.09
2022-08-09T07:52:03.414Z,75.86
2022-08-09T07:56:31.709Z,75.38
2022-08-09T08:01:36.553Z,75.32
2022-08-09T08:06:45.471Z,75.07
2022-08-09T08:12:24.772Z,74.60
2022-08-09T08:17:52.155Z,74.18
2022-08-09T08:22:49.957Z,73.26
2022-08-09T08:28:00.433Z,72.63
2022-08-09T08:33:05.044Z,71.68
2022-08-09T08:38:11.798Z,70.60
2022-08-09T08:43:16.533Z,69.90
2022-08-09T08:48:23.738Z,67.39
2022-08-09T08:53:37.242Z,64.43
2022-08-09T08:58:46.454Z,63.92
2022-08-09T09:03:52.581Z,59.40
2022-08-09T09:09:02.391Z,57.06
2022-08-09T09:14:27.991Z,53.76
2022-08-09T09:19:41.088Z,53.81
2022-08-09T09:24:55.553Z,53.67
2022-08-09T09:30:39.739Z,52.91
2022-08-09T09:36:02.242Z,55.03
2022-08-09T09:41:09.912Z,53.81
2022-08-09T09:51:42.576Z,54.09
2022-08-09T09:58:00.801Z,53.19
2022-08-09T10:02:19.796Z,52.49
2022-08-09T10:07:30.235Z,52.58
2022-08-09T10:12:43.771Z,52.11
2022-08-09T10:18:10.597Z,51.01
2022-08-09T10:23:20.225Z,51.54
2022-08-09T10:28:32.884Z,50.97
2022-08-09T10:34:08.451Z,51.65
2022-08-09T10:39:13.948Z,52.11
2022-08-09T10:44:24.739Z,52.53
2022-08-09T10:50:15.078Z,52.08
2022-08-09T10:55:49.186Z,51.64
2022-08-09T11:03:02.060Z,50.33
2022-08-09T11:06:24.719Z,49.28
2022-08-09T11:11:58.710Z,48.29
2022-08-09T11:17:25.056Z,46.01
2022-08-09T11:22:41.652Z,44.62
2022-08-09T11:28:05.017Z,43.57
2022-08-09T11:33:20.350Z,44.83
2022-08-09T11:38:35.013Z,46.47
2022-08-09T11:43:52.644Z,44.94
2022-08-09T11:48:59.312Z,45.72
2022-08-09T11:54:27.555Z,44.90
2022-08-09T11:59:34.550Z,44.22
2022-08-09T12:04:42.212Z,44.64
2022-08-09T12:09:50.686Z,44.31
2022-08-09T12:15:03.858Z,44.76
2022-08-09T12:20:24.136Z,45.31
2022-08-09T12:25:37.098Z,45.58
2022-08-09T12:30:45.793Z,45.85
2022-08-09T12:36:27.710Z,46.49
2022-08-09T12:41:39.713Z,47.58
2022-08-09T12:46:49.834Z,48.30
2022-08-09T12:52:00.558Z,49.38
2022-08-09T12:57:08.107Z,49.33
2022-08-09T13:02:15.232Z,50.44
2022-08-09T13:07:50.188Z,50.81
2022-08-09T13:13:09.998Z,51.72
2022-08-09T13:18:17.552Z,52.15
2022-08-09T13:24:16.965Z,52.02
2022-08-09T13:29:42.352Z,52.38
2022-08-09T13:34:46.614Z,52.31
2022-08-09T13:41:54.739Z,52.94
2022-08-09T13:45:17.517Z,51.90
2022-08-09T13:50:30.446Z,51.60
2022-08-09T13:55:36.922Z,51.59
2022-08-09T14:00:48.287Z,50.94
2022-08-09T14:06:02.671Z,50.58
2022-08-09T14:11:16.007Z,50.40
2022-08-09T14:16:28.193Z,50.31
2022-08-09T14:21:33.638Z,49.54
2022-08-09T14:26:38.121Z,49.42
2022-08-09T14:31:51.930Z,49.04
2022-08-09T14:36:58.103Z,49.39
2022-08-09T14:42:03.378Z,49.01
2022-08-09T14:47:29.089Z,48.56
2022-08-09T14:52:33.361Z,48.38
2022-08-09T14:57:43.630Z,48.86
2022-08-09T15:02:51.838Z,49.29
2022-08-09T15:07:58.163Z,48.56
2022-08-09T15:13:05.782Z,48.70
2022-08-09T15:18:14.552Z,48.63
2022-08-09T15:24:01.703Z,48.24
2022-08-09T15:28:42.698Z,48.71
2022-08-09T15:34:17.266Z,49.54
2022-08-09T15:39:24.313Z,49.65
2022-08-09T15:44:39.852Z,49.74
2022-08-09T15:49:46.299Z,50.53
2022-08-09T15:55:12.730Z,50.78
2022-08-09T16:00:25.791Z,51.36
2022-08-09T16:05:36.329Z,52.15
2022-08-09T16:10:56.919Z,51.81
2022-08-09T16:16:12.000Z,50.31
2022-08-09T16:21:25.865Z,49.84
2022-08-09T16:26:35.273Z,50.65
2022-08-09T16:32:18.559Z,51.47
2022-08-09T16:37:11.832Z,51.47
2022-08-09T16:42:16.066Z,51.72
2022-08-09T16:48:49.554Z,52.72
2022-08-09T16:52:53.279Z,53.61
2022-08-09T16:58:09.906Z,54.06
2022-08-09T17:03:22.233Z,54.78
2022-08-09T17:08:43.400Z,54.84
2022-08-09T17:14:01.792Z,54.72
2022-08-09T17:19:06.275Z,54.87
2022-08-09T17:24:28.146Z,55.10
2022-08-09T17:29:38.026Z,55.08
2022-08-09T17:35:00.974Z,55.55
2022-08-09T17:40:18.166Z,56.19
2022-08-09T17:45:27.297Z,56.78
2022-08-09T17:50:41.917Z,57.62
2022-08-09T17:56:04.716Z,58.56
2022-08-09T18:01:22.286Z,59.54
2022-08-09T18:06:32.046Z,60.51
2022-08-09T18:11:46.819Z,61.11
2022-08-09T18:17:03.991Z,61.48
2022-08-09T18:22:13.387Z,61.66
2022-08-09T18:28:02.165Z,62.01
2022-08-09T18:32:45.664Z,62.40
2022-08-09T18:37:58.982Z,62.90
2022-08-09T18:43:03.860Z,63.61
2022-08-09T18:48:08.645Z,64.02
2022-08-09T18:53:16.286Z,64.31
2022-08-09T18:58:32.046Z,64.67
2022-08-09T19:03:54.521Z,65.13
2022-08-09T19:09:07.684Z,65.54
2022-08-09T19:14:24.299Z,65.80
2022-08-09T19:19:41.639Z,66.01
2022-08-09T19:25:09.925Z,66.20
2022-08-09T19:30:22.115Z,66.51
2022-08-09T19:35:57.237Z,66.73
2022-08-09T19:40:59.952Z,67.10
2022-08-09T19:46:05.701Z,67.62
2022-08-09T19:51:10.128Z,68.38
2022-08-09T19:56:15.562Z,68.58
2022-08-09T20:01:20.196Z,68.85
2022-08-09T20:06:31.348Z,69.06
2022-08-09T20:11:48.838Z,69.49
2022-08-09T20:16:56.927Z,70.31
2022-08-09T20:22:01.508Z,71.13
2022-08-09T20:27:11.596Z,71.60
2022-08-09T20:32:30.588Z,71.93
2022-08-09T20:38:22.267Z,72.44
2022-08-09T20:43:18.404Z,72.88
2022-08-09T20:48:30.695Z,72.74
2022-08-09T20:53:39.093Z,72.69
2022-08-09T20:58:43.669Z,73.10
2022-08-09T21:04:08.414Z,73.78
2022-08-09T21:09:24.784Z,74.63
2022-08-09T21:14:40.373Z,75.11
2022-08-09T21:20:18.395Z,75.44
2022-08-09T21:25:37.610Z,75.53
2022-08-09T21:30:42.985Z,75.61
2022-08-09T21:35:51.073Z,75.88
2022-08-09T21:40:56.970Z,75.93
2022-08-09T21:46:01.414Z,75.73
2022-08-09T21:51:13.992Z,75.75
2022-08-09T21:56:34.023Z,75.82
2022-08-09T22:02:00.263Z,76.10
2022-08-09T22:07:06.569Z,76.21
2022-08-09T22:12:18.520Z,76.25
2022-08-09T22:17:33.158Z,76.93
2022-08-09T22:22:39.343Z,77.62
2022-08-09T22:27:43.723Z,78.01
2022-08-09T22:32:48.018Z,78.11
2022-08-09T22:38:03.344Z,78.35
2022-08-09T22:43:16.849Z,78.61
2022-08-09T22:48:37.021Z,78.82
2022-08-09T22:53:58.670Z,79.36
2022-08-09T22:59:57.671Z,79.57
2022-08-09T23:04:32.558Z,79.44
2022-08-09T23:09:40.986Z,79.75
2022-08-09T23:14:45.121Z,80.78
2022-08-09T23:20:07.504Z,80.94
2022-08-09T23:25:12.652Z,80.40
2022-08-09T23:30:17.971Z,80.35
2022-08-09T23:35:22.139Z,80.14
2022-08-09T23:40:26.473Z,79.99
2022-08-09T23:45:36.863Z,80.00
2022-08-09T23:50:42.782Z,80.01
2022-08-09T23:55:49.734Z,80.00
